createdAt,value
2022-12-17T00:02:58.130Z,79.99
2022-12-17T00:08:20.072Z,80.74
2022-12-17T00:13:41.334Z,79.56
2022-12-17T00:19:01.946Z,79.32
2022-12-17T00:24:24.687Z,80.45
2022-12-17T00:29:44.998Z,80.22
2022-12-17T00:35:05.375Z,79.73
2022-12-17T00:40:28.113Z,80.27
2022-12-17T00:46:03.145Z,80.01
2022-12-17T00:51:23.870Z,79.90
2022-12-17T00:56:45.395Z,80.46
2022-12-17T01:02:06.275Z,81.26
2022-12-17T01:07:26.992Z,80.42
2022-12-17T01:12:59.855Z,80.05
2022-12-17T01:18:20.294Z,79.99
2022-12-17T01:23:40.427Z,79.88
2022-12-17T01:29:02.256Z,80.02
2022-12-17T01:34:22.786Z,80.05
2022-12-17T01:39:42.994Z,80.44
2022-12-17T01:45:10.814Z,80.81
2022-12-17T01:50:32.482Z,81.18
2022-12-17T01:55:53.240Z,81.63
2022-12-17T02:01:14.856Z,82.36
2022-12-17T02:06:40.662Z,82.52
2022-12-17T02:12:10.562Z,82.24
2022-12-17T02:17:38.517Z,83.21
2022-12-17T02:23:10.149Z,83.46
2022-12-17T02:28:32.088Z,82.93
2022-12-17T02:33:52.947Z,82.67
2022-12-17T02:39:13.202Z,82.82
2022-12-17T02:44:37.875Z,82.42
2022-12-17T02:49:58.255Z,82.37
2022-12-17T02:55:18.804Z,82.30
2022-12-17T03:00:40.807Z,82.55
2022-12-17T03:06:02.038Z,81.75
2022-12-17T03:11:22.874Z,81.49
2022-12-17T03:16:44.297Z,81.61
2022-12-17T03:22:05.010Z,81.46
2022-12-17T03:27:25.134Z,82.13
2022-12-17T03:32:46.639Z,81.51
2022-12-17T03:38:06.746Z,82.85
2022-12-17T03:43:27.938Z,82.89
2022-12-17T03:48:49.795Z,83.00
2022-12-17T03:54:10.259Z,83.12
2022-12-17T03:59:30.657Z,83.15
2022-12-17T04:04:52.246Z,82.94
2022-12-17T04:10:12.448Z,83.16
2022-12-17T04:15:32.523Z,83.50
2022-12-17T04:20:54.085Z,82.74
2022-12-17T04:26:14.518Z,82.20
2022-12-17T04:31:35.122Z,82.60
2022-12-17T04:36:57.695Z,82.37
2022-12-17T04:42:18.271Z,82.03
2022-12-17T04:47:38.435Z,82.41
2022-12-17T04:52:59.840Z,81.88
2022-12-17T04:58:21.217Z,82.78
2022-12-17T05:03:41.599Z,82.89
2022-12-17T05:09:03.831Z,82.11
2022-12-17T05:14:24.048Z,82.61
2022-12-17T05:19:44.484Z,82.94
2022-12-17T05:25:06.232Z,83.11
2022-12-17T05:30:27.287Z,83.00
2022-12-17T05:35:47.434Z,82.62
2022-12-17T05:41:10.623Z,82.71
2022-12-17T05:46:30.813Z,82.50
2022-12-17T05:51:51.047Z,82.42
2022-12-17T05:57:13.313Z,82.05
2022-12-17T06:02:33.808Z,82.85
2022-12-17T06:07:54.033Z,83.24
2022-12-17T06:13:16.096Z,82.66
2022-12-17T06:18:36.357Z,82.48
2022-12-17T06:23:56.761Z,82.63
2022-12-17T06:29:18.308Z,83.11
2022-12-17T06:34:38.692Z,83.25
2022-12-17T06:39:58.875Z,83.38
2022-12-17T06:45:20.273Z,82.72
2022-12-17T06:50:40.445Z,83.24
2022-12-17T06:56:00.489Z,83.45
2022-12-17T07:01:22.451Z,83.19
2022-12-17T07:06:57.340Z,83.66
2022-12-17T07:12:17.961Z,84.71
2022-12-17T07:17:39.792Z,83.30
2022-12-17T07:23:00.474Z,82.69
2022-12-17T07:28:20.841Z,82.66
2022-12-17T07:33:42.692Z,82.96
2022-12-17T07:39:03.194Z,82.75
2022-12-17T07:44:23.621Z,83.05
2022-12-17T07:49:47.706Z,82.77
2022-12-17T07:55:08.034Z,82.74
2022-12-17T08:00:29.763Z,83.24
2022-12-17T08:05:51.422Z,82.04
2022-12-17T08:11:11.746Z,82.63
2022-12-17T08:16:32.229Z,82.47
2022-12-17T08:21:53.828Z,81.47
2022-12-17T08:27:14.155Z,81.85
2022-12-17T08:32:42.714Z,81.76
2022-12-17T08:38:04.568Z,81.88
2022-12-17T08:43:25.338Z,82.58
2022-12-17T08:48:45.405Z,84.80
2022-12-17T08:54:07.020Z,85.48
2022-12-17T08:59:26.998Z,84.44
2022-12-17T09:04:47.508Z,84.88
2022-12-17T09:10:09.156Z,83.91
2022-12-17T09:15:29.580Z,83.51
2022-12-17T09:20:49.851Z,83.74
2022-12-17T09:26:15.739Z,84.23
2022-12-17T09:31:37.699Z,82.59
2022-12-17T09:36:58.278Z,82.79
2022-12-17T09:42:45.507Z,82.52
2022-12-17T09:48:16.496Z,82.83
2022-12-17T09:53:41.889Z,82.86
2022-12-17T09:59:03.548Z,82.10
2022-12-17T10:04:29.718Z,82.20
2022-12-17T10:09:52.102Z,81.83
2022-12-17T10:15:13.994Z,82.43
2022-12-17T10:20:39.771Z,82.89
2022-12-17T10:26:09.706Z,83.63
2022-12-17T10:31:37.251Z,82.56
2022-12-17T10:37:04.055Z,83.14
2022-12-17T10:42:38.457Z,82.27
2022-12-17T10:48:02.595Z,82.93
2022-12-17T10:53:36.891Z,83.03
2022-12-17T10:59:03.830Z,83.10
2022-12-17T11:04:42.787Z,82.93
2022-12-17T11:10:09.533Z,81.33
2022-12-17T11:15:37.857Z,81.21
2022-12-17T11:21:06.357Z,80.30
2022-12-17T11:26:32.025Z,80.79
2022-12-17T11:32:04.185Z,82.27
2022-12-17T11:37:35.849Z,81.43
2022-12-17T11:43:01.835Z,80.92
2022-12-17T11:48:30.222Z,80.25
2022-12-17T11:54:08.152Z,79.79
2022-12-17T11:59:36.628Z,80.32
2022-12-17T12:05:13.553Z,79.71
2022-12-17T12:10:38.387Z,79.97
2022-12-17T12:16:10.873Z,79.23
2022-12-17T12:21:52.246Z,80.34
2022-12-17T12:27:23.712Z,78.60
2022-12-17T12:32:51.891Z,78.63
2022-12-17T12:38:13.189Z,78.54
2022-12-17T12:43:40.590Z,78.04
2022-12-17T12:49:07.483Z,77.75
2022-12-17T12:54:46.206Z,77.96
2022-12-17T13:00:08.451Z,77.37
2022-12-17T13:05:35.378Z,77.33
2022-12-17T13:10:38.930Z,77.37
2022-12-17T13:15:48.607Z,77.18
2022-12-17T13:21:00.111Z,76.95
2022-12-17T13:26:21.848Z,77.66
2022-12-17T13:31:28.995Z,76.90
2022-12-17T13:36:39.011Z,77.63
2022-12-17T13:41:42.109Z,77.99
2022-12-17T13:46:48.596Z,77.72
2022-12-17T13:52:06.493Z,77.44
2022-12-17T13:57:16.446Z,78.28
2022-12-17T14:02:27.392Z,81.62
2022-12-17T14:07:31.568Z,83.87
2022-12-17T14:12:35.509Z,85.54
2022-12-17T14:17:45.220Z,85.82
2022-12-17T14:22:52.049Z,86.02
2022-12-17T14:27:57.062Z,86.23
2022-12-17T14:33:01.348Z,86.04
2022-12-17T14:38:04.895Z,85.63
2022-12-17T14:43:08.240Z,84.71
2022-12-17T14:48:17.040Z,84.85
2022-12-17T14:53:26.642Z,84.83
2022-12-17T14:58:29.557Z,84.46
2022-12-17T15:03:36.076Z,85.17
2022-12-17T15:08:43.076Z,85.48
2022-12-17T15:13:47.374Z,84.16
2022-12-17T15:18:53.446Z,84.21
2022-12-17T15:23:56.369Z,84.04
2022-12-17T15:28:59.476Z,84.64
2022-12-17T15:34:03.803Z,83.99
2022-12-17T15:39:07.295Z,84.62
2022-12-17T15:44:10.448Z,84.81
2022-12-17T15:49:14.843Z,84.78
2022-12-17T15:54:17.716Z,85.43
2022-12-17T15:59:20.711Z,84.84
2022-12-17T16:04:25.617Z,83.49
2022-12-17T16:09:29.729Z,82.74
2022-12-17T16:14:32.588Z,82.93
2022-12-17T16:19:37.258Z,82.24
2022-12-17T16:24:40.993Z,81.56
2022-12-17T16:29:43.980Z,81.75
2022-12-17T16:34:48.275Z,80.87
2022-12-17T16:39:56.628Z,80.56
2022-12-17T16:45:02.770Z,81.77
2022-12-17T16:50:07.564Z,80.96
2022-12-17T16:55:10.911Z,80.51
2022-12-17T17:00:14.933Z,81.18
2022-12-17T17:05:19.214Z,80.93
2022-12-17T17:10:22.145Z,81.62
2022-12-17T17:15:25.368Z,80.96
2022-12-17T17:20:32.444Z,79.93
2022-12-17T17:25:57.804Z,79.71
2022-12-17T17:31:00.329Z,82.85
2022-12-17T17:36:09.991Z,83.19
2022-12-17T17:41:15.237Z,81.62
2022-12-17T17:46:19.723Z,80.97
2022-12-17T17:51:52.113Z,79.82
2022-12-17T17:56:48.828Z,79.19
2022-12-17T18:01:52.567Z,78.09
2022-12-17T18:12:37.279Z,78.08
2022-12-17T18:17:40.185Z,78.27
2022-12-17T18:22:45.953Z,78.08
2022-12-17T18:27:49.308Z,77.62
2022-12-17T18:32:52.185Z,78.11
2022-12-17T18:37:56.628Z,79.02
2022-12-17T18:43:16.857Z,77.69
2022-12-17T18:48:20.266Z,77.37
2022-12-17T18:53:25.922Z,77.70
2022-12-17T18:58:28.838Z,77.86
2022-12-17T19:03:31.822Z,76.67
2022-12-17T19:08:37.723Z,77.05
2022-12-17T19:13:41.214Z,77.02
2022-12-17T19:18:44.940Z,77.18
2022-12-17T19:23:49.898Z,77.66
2022-12-17T19:28:54.145Z,77.94
2022-12-17T19:33:58.237Z,78.02
2022-12-17T19:39:04.456Z,77.68
2022-12-17T19:44:09.065Z,76.96
2022-12-17T19:49:13.217Z,76.94
2022-12-17T19:54:17.605Z,75.93
2022-12-17T19:59:20.571Z,77.58
2022-12-17T20:04:23.469Z,77.91
2022-12-17T20:09:27.839Z,76.71
2022-12-17T20:14:31.586Z,75.91
2022-12-17T20:19:35.356Z,76.38
2022-12-17T20:24:39.776Z,76.46
2022-12-17T20:29:42.711Z,76.82
2022-12-17T20:34:45.635Z,75.59
2022-12-17T20:39:49.879Z,75.90
2022-12-17T20:44:53.675Z,76.11
2022-12-17T20:49:56.722Z,76.26
2022-12-17T20:55:00.967Z,76.20
2022-12-17T21:00:04.117Z,76.96
2022-12-17T21:05:07.727Z,75.95
2022-12-17T21:10:12.685Z,75.26
2022-12-17T21:15:15.650Z,75.53
2022-12-17T21:20:18.623Z,76.40
2022-12-17T21:25:23.278Z,75.63
2022-12-17T21:30:26.243Z,75.78
2022-12-17T21:35:29.198Z,75.91
2022-12-17T21:40:36.238Z,75.66
2022-12-17T21:45:40.502Z,75.69
2022-12-17T21:50:44.511Z,75.76
2022-12-17T21:55:50.010Z,75.28
2022-12-17T22:00:53.332Z,74.85
2022-12-17T22:05:56.196Z,74.83
2022-12-17T22:11:00.504Z,74.83
2022-12-17T22:16:06.991Z,73.74
2022-12-17T22:21:09.940Z,74.93
2022-12-17T22:26:16.070Z,74.27
2022-12-17T22:31:38.172Z,73.50
2022-12-17T22:38:47.874Z,74.28
2022-12-17T22:44:41.156Z,74.57
2022-12-17T22:47:47.617Z,75.54
2022-12-17T22:52:50.523Z,75.20
2022-12-17T22:57:55.210Z,75.09
2022-12-17T23:02:58.260Z,74.20
2022-12-17T23:08:01.340Z,75.07
2022-12-17T23:13:05.583Z,75.84
2022-12-17T23:18:09.027Z,75.47
2022-12-17T23:23:11.918Z,74.89
2022-12-17T23:28:16.171Z,74.59
2022-12-17T23:33:19.024Z,74.72
2022-12-17T23:38:21.884Z,74.65
2022-12-17T23:43:26.152Z,75.50
2022-12-17T23:48:31.806Z,74.28
2022-12-17T23:53:36.154Z,74.47
2022-12-17T23:58:41.977Z,75.11
